sensor_id;sensor_type;location;lat;lon;timestamp;pressure;altitude;pressure_sealevel;temperature;humidity
23223;BME280;11780;13.904;100.620;2024-01-30T00:02:08;101510.78;;;29.68;56.20
23223;BME280;11780;13.904;100.620;2024-01-30T00:04:38;101513.84;;;29.66;56.31
23223;BME280;11780;13.904;100.620;2024-01-30T00:07:29;101514.13;;;29.65;56.65
23223;BME280;11780;13.904;100.620;2024-01-30T00:10:17;101517.72;;;29.65;56.62
23223;BME280;11780;13.904;100.620;2024-01-30T00:12:48;101529.31;;;29.62;56.40
23223;BME280;11780;13.904;100.620;2024-01-30T00:15:18;101531.78;;;29.63;56.16
23223;BME280;11780;13.904;100.620;2024-01-30T00:17:49;101535.63;;;29.62;56.19
23223;BME280;11780;13.904;100.620;2024-01-30T00:20:22;101540.88;;;29.64;56.29
23223;BME280;11780;13.904;100.620;2024-01-30T00:22:52;101546.66;;;29.62;55.78
23223;BME280;11780;13.904;100.620;2024-01-30T00:25:22;101542.81;;;29.63;55.79
23223;BME280;11780;13.904;100.620;2024-01-30T00:27:53;101555.25;;;29.61;56.00
23223;BME280;11780;13.904;100.620;2024-01-30T00:30:23;101547.50;;;29.63;55.84
23223;BME280;11780;13.904;100.620;2024-01-30T00:32:54;101569.56;;;29.63;55.83
23223;BME280;11780;13.904;100.620;2024-01-30T00:35:24;101571.78;;;29.61;55.95
23223;BME280;11780;13.904;100.620;2024-01-30T00:37:55;101577.84;;;29.63;55.91
23223;BME280;11780;13.904;100.620;2024-01-30T00:40:25;101579.47;;;29.64;55.89
23223;BME280;11780;13.904;100.620;2024-01-30T00:42:56;101588.28;;;29.66;55.59
23223;BME280;11780;13.904;100.620;2024-01-30T00:45:26;101577.53;;;29.65;55.65
23223;BME280;11780;13.904;100.620;2024-01-30T00:47:56;101586.09;;;29.63;55.42
23223;BME280;11780;13.904;100.620;2024-01-30T00:50:27;101591.09;;;29.61;55.43
23223;BME280;11780;13.904;100.620;2024-01-30T00:52:57;101597.13;;;29.63;55.54
23223;BME280;11780;13.904;100.620;2024-01-30T00:55:28;101599.34;;;29.61;55.50
23223;BME280;11780;13.904;100.620;2024-01-30T00:57:58;101606.22;;;29.63;55.47
23223;BME280;11780;13.904;100.620;2024-01-30T01:00:29;101608.16;;;29.63;55.67
23223;BME280;11780;13.904;100.620;2024-01-30T01:02:59;101599.88;;;29.63;55.58
23223;BME280;11780;13.904;100.620;2024-01-30T01:05:30;101608.97;;;29.63;55.55
23223;BME280;11780;13.904;100.620;2024-01-30T01:08:00;101608.97;;;29.63;55.53
23223;BME280;11780;13.904;100.620;2024-01-30T01:10:30;101605.41;;;29.63;55.31
23223;BME280;11780;13.904;100.620;2024-01-30T01:13:00;101602.91;;;29.61;55.81
23223;BME280;11780;13.904;100.620;2024-01-30T01:15:31;101608.44;;;29.61;55.70
23223;BME280;11780;13.904;100.620;2024-01-30T01:18:01;101609.81;;;29.64;55.72
23223;BME280;11780;13.904;100.620;2024-01-30T01:20:32;101619.78;;;29.60;55.41
23223;BME280;11780;13.904;100.620;2024-01-30T01:23:02;101615.59;;;29.62;55.56
23223;BME280;11780;13.904;100.620;2024-01-30T01:25:33;101617.31;;;29.58;55.75
23223;BME280;11780;13.904;100.620;2024-01-30T01:28:04;101604.66;;;29.57;55.77
23223;BME280;11780;13.904;100.620;2024-01-30T01:30:34;101606.56;;;29.57;55.59
23223;BME280;11780;13.904;100.620;2024-01-30T01:33:05;101608.75;;;29.60;55.40
23223;BME280;11780;13.904;100.620;2024-01-30T01:35:36;101607.63;;;29.61;55.68
23223;BME280;11780;13.904;100.620;2024-01-30T01:38:06;101606.56;;;29.57;55.42
23223;BME280;11780;13.904;100.620;2024-01-30T01:40:36;101608.22;;;29.58;55.35
23223;BME280;11780;13.904;100.620;2024-01-30T01:43:09;101618.13;;;29.59;55.58
23223;BME280;11780;13.904;100.620;2024-01-30T01:45:39;101618.94;;;29.59;55.38
23223;BME280;11780;13.904;100.620;2024-01-30T01:48:10;101622.84;;;29.58;55.55
23223;BME280;11780;13.904;100.620;2024-01-30T01:50:42;101629.38;;;29.62;55.34
23223;BME280;11780;13.904;100.620;2024-01-30T01:53:13;101632.13;;;29.62;55.75
23223;BME280;11780;13.904;100.620;2024-01-30T01:55:45;101632.97;;;29.63;55.47
23223;BME280;11780;13.904;100.620;2024-01-30T01:58:17;101640.13;;;29.64;55.98
23223;BME280;11780;13.904;100.620;2024-01-30T02:00:50;101646.75;;;29.63;56.07
23223;BME280;11780;13.904;100.620;2024-01-30T02:03:21;101653.91;;;29.64;56.05
23223;BME280;11780;13.904;100.620;2024-01-30T02:05:52;101651.69;;;29.66;56.04
23223;BME280;11780;13.904;100.620;2024-01-30T02:08:23;101653.31;;;29.67;55.94
23223;BME280;11780;13.904;100.620;2024-01-30T02:10:54;101654.16;;;29.68;55.91
23223;BME280;11780;13.904;100.620;2024-01-30T02:13:25;101655.50;;;29.70;55.96
23223;BME280;11780;13.904;100.620;2024-01-30T02:15:55;101661.00;;;29.70;56.23
23223;BME280;11780;13.904;100.620;2024-01-30T02:18:26;101659.88;;;29.71;56.31
23223;BME280;11780;13.904;100.620;2024-01-30T02:20:58;101658.78;;;29.72;56.30
23223;BME280;11780;13.904;100.620;2024-01-30T02:23:32;101660.13;;;29.75;56.70
23223;BME280;11780;13.904;100.620;2024-01-30T02:26:03;101674.22;;;29.73;56.61
23223;BME280;11780;13.904;100.620;2024-01-30T02:28:34;101673.09;;;29.74;56.47
23223;BME280;11780;13.904;100.620;2024-01-30T02:31:04;101670.28;;;29.80;56.55
23223;BME280;11780;13.904;100.620;2024-01-30T02:33:35;101667.28;;;29.76;56.90
23223;BME280;11780;13.904;100.620;2024-01-30T02:36:05;101668.09;;;29.76;56.79
23223;BME280;11780;13.904;100.620;2024-01-30T02:38:36;101676.38;;;29.76;56.77
23223;BME280;11780;13.904;100.620;2024-01-30T02:41:06;101676.09;;;29.78;56.66
23223;BME280;11780;13.904;100.620;2024-01-30T02:43:36;101673.03;;;29.80;56.59
23223;BME280;11780;13.904;100.620;2024-01-30T02:46:06;101665.56;;;29.80;56.69
23223;BME280;11780;13.904;100.620;2024-01-30T02:48:37;101671.63;;;29.82;56.66
23223;BME280;11780;13.904;100.620;2024-01-30T02:51:08;101669.69;;;29.83;56.37
23223;BME280;11780;13.904;100.620;2024-01-30T02:53:39;101668.88;;;29.82;56.76
23223;BME280;11780;13.904;100.620;2024-01-30T02:56:09;101664.69;;;29.85;56.81
23223;BME280;11780;13.904;100.620;2024-01-30T02:58:40;101663.03;;;29.84;56.74
23223;BME280;11780;13.904;100.620;2024-01-30T03:01:10;101669.09;;;29.86;56.46
23223;BME280;11780;13.904;100.620;2024-01-30T03:03:41;101656.94;;;29.87;56.80
23223;BME280;11780;13.904;100.620;2024-01-30T03:06:13;101657.78;;;29.87;56.74
23223;BME280;11780;13.904;100.620;2024-01-30T03:08:46;101648.66;;;29.87;56.74
23223;BME280;11780;13.904;100.620;2024-01-30T03:11:16;101652.81;;;29.89;56.87
23223;BME280;11780;13.904;100.620;2024-01-30T03:13:46;101648.09;;;29.90;56.49
23223;BME280;11780;13.904;100.620;2024-01-30T03:16:17;101646.97;;;29.91;56.68
23223;BME280;11780;13.904;100.620;2024-01-30T03:18:47;101645.31;;;29.90;56.71
23223;BME280;11780;13.904;100.620;2024-01-30T03:21:18;101634.00;;;29.91;56.79
23223;BME280;11780;13.904;100.620;2024-01-30T03:23:48;101644.22;;;29.91;57.12
23223;BME280;11780;13.904;100.620;2024-01-30T03:26:18;101635.63;;;29.92;57.18
23223;BME280;11780;13.904;100.620;2024-01-30T03:28:49;101640.88;;;29.94;57.11
23223;BME280;11780;13.904;100.620;2024-01-30T03:31:19;101636.16;;;29.95;57.26
23223;BME280;11780;13.904;100.620;2024-01-30T03:33:50;101638.91;;;29.95;56.90
23223;BME280;11780;13.904;100.620;2024-01-30T03:36:20;101641.94;;;29.98;57.08
23223;BME280;11780;13.904;100.620;2024-01-30T03:38:51;101632.03;;;29.97;57.30
23223;BME280;11780;13.904;100.620;2024-01-30T03:41:21;101627.88;;;30.00;57.47
23223;BME280;11780;13.904;100.620;2024-01-30T03:43:51;101628.13;;;29.98;57.40
23223;BME280;11780;13.904;100.620;2024-01-30T03:46:21;101622.34;;;30.00;57.54
23223;BME280;11780;13.904;100.620;2024-01-30T03:48:52;101629.78;;;29.99;57.19
23223;BME280;11780;13.904;100.620;2024-01-30T03:51:23;101612.41;;;29.99;57.49
23223;BME280;11780;13.904;100.620;2024-01-30T03:53:53;101614.88;;;30.00;57.51
23223;BME280;11780;13.904;100.620;2024-01-30T03:56:23;101615.19;;;29.99;57.65
23223;BME280;11780;13.904;100.620;2024-01-30T03:58:55;101611.84;;;30.02;57.41
23223;BME280;11780;13.904;100.620;2024-01-30T04:01:26;101610.41;;;30.04;57.36
23223;BME280;11780;13.904;100.620;2024-01-30T04:03:57;101612.06;;;30.05;57.79
23223;BME280;11780;13.904;100.620;2024-01-30T04:06:28;101609.28;;;30.05;57.70
23223;BME280;11780;13.904;100.620;2024-01-30T04:08:58;101608.19;;;30.06;57.50
23223;BME280;11780;13.904;100.620;2024-01-30T04:11:28;101595.19;;;30.07;57.24
23223;BME280;11780;13.904;100.620;2024-01-30T04:13:59;101599.59;;;30.08;57.10
23223;BME280;11780;13.904;100.620;2024-01-30T04:16:29;101584.16;;;30.07;57.20
23223;BME280;11780;13.904;100.620;2024-01-30T04:18:59;101589.09;;;30.10;57.33
23223;BME280;11780;13.904;100.620;2024-01-30T04:21:30;101594.31;;;30.12;57.25
23223;BME280;11780;13.904;100.620;2024-01-30T04:24:01;101589.41;;;30.08;57.36
23223;BME280;11780;13.904;100.620;2024-01-30T04:26:31;101585.50;;;30.10;57.38
23223;BME280;11780;13.904;100.620;2024-01-30T04:29:02;101578.63;;;30.07;57.09
23223;BME280;11780;13.904;100.620;2024-01-30T04:31:32;101576.94;;;30.11;57.40
23223;BME280;11780;13.904;100.620;2024-01-30T04:34:03;101578.56;;;30.12;57.19
23223;BME280;11780;13.904;100.620;2024-01-30T04:36:33;101572.25;;;30.12;57.21
23223;BME280;11780;13.904;100.620;2024-01-30T04:39:04;101559.25;;;30.12;57.27
23223;BME280;11780;13.904;100.620;2024-01-30T04:41:34;101560.09;;;30.13;57.24
23223;BME280;11780;13.904;100.620;2024-01-30T04:44:05;101563.34;;;30.15;56.98
23223;BME280;11780;13.904;100.620;2024-01-30T04:46:35;101549.56;;;30.15;57.02
23223;BME280;11780;13.904;100.620;2024-01-30T04:49:06;101553.94;;;30.16;56.81
23223;BME280;11780;13.904;100.620;2024-01-30T04:51:37;101555.59;;;30.17;56.68
23223;BME280;11780;13.904;100.620;2024-01-30T04:54:08;101546.50;;;30.16;56.72
23223;BME280;11780;13.904;100.620;2024-01-30T04:56:38;101545.66;;;30.16;56.49
23223;BME280;11780;13.904;100.620;2024-01-30T04:59:09;101543.75;;;30.16;56.77
23223;BME280;11780;13.904;100.620;2024-01-30T05:01:39;101538.22;;;30.16;56.55
23223;BME280;11780;13.904;100.620;2024-01-30T05:04:10;101530.75;;;30.17;56.34
23223;BME280;11780;13.904;100.620;2024-01-30T05:06:44;101531.28;;;30.19;56.57
23223;BME280;11780;13.904;100.620;2024-01-30T05:09:15;101522.47;;;30.17;56.56
23223;BME280;11780;13.904;100.620;2024-01-30T05:11:45;101516.97;;;30.17;56.74
23223;BME280;11780;13.904;100.620;2024-01-30T05:14:15;101511.97;;;30.19;56.33
23223;BME280;11780;13.904;100.620;2024-01-30T05:16:46;101508.41;;;30.18;56.35
23223;BME280;11780;13.904;100.620;2024-01-30T05:19:17;101505.34;;;30.20;56.57
23223;BME280;11780;13.904;100.620;2024-01-30T05:21:47;101493.78;;;30.18;56.43
23223;BME280;11780;13.904;100.620;2024-01-30T05:24:18;101485.22;;;30.19;56.36
23223;BME280;11780;13.904;100.620;2024-01-30T05:26:50;101482.44;;;30.19;56.20
23223;BME280;11780;13.904;100.620;2024-01-30T05:29:21;101471.41;;;30.19;56.27
23223;BME280;11780;13.904;100.620;2024-01-30T05:31:51;101469.16;;;30.21;56.02
23223;BME280;11780;13.904;100.620;2024-01-30T05:34:22;101465.25;;;30.22;56.23
23223;BME280;11780;13.904;100.620;2024-01-30T05:36:52;101456.69;;;30.24;56.23
23223;BME280;11780;13.904;100.620;2024-01-30T05:39:22;101450.34;;;30.23;56.00
23223;BME280;11780;13.904;100.620;2024-01-30T05:41:53;101445.66;;;30.24;56.04
23223;BME280;11780;13.904;100.620;2024-01-30T05:44:23;101440.66;;;30.26;56.04
23223;BME280;11780;13.904;100.620;2024-01-30T05:46:53;101437.91;;;30.26;55.68
23223;BME280;11780;13.904;100.620;2024-01-30T05:49:24;101432.66;;;30.25;55.64
23223;BME280;11780;13.904;100.620;2024-01-30T05:51:54;101426.88;;;30.26;55.97
23223;BME280;11780;13.904;100.620;2024-01-30T05:54:24;101414.47;;;30.23;56.00
23223;BME280;11780;13.904;100.620;2024-01-30T05:56:55;101424.41;;;30.25;56.14
23223;BME280;11780;13.904;100.620;2024-01-30T05:59:25;101414.19;;;30.25;56.15
23223;BME280;11780;13.904;100.620;2024-01-30T06:01:55;101408.66;;;30.25;55.64
23223;BME280;11780;13.904;100.620;2024-01-30T06:04:26;101397.63;;;30.25;55.57
23223;BME280;11780;13.904;100.620;2024-01-30T06:06:56;101394.56;;;30.27;55.59
23223;BME280;11780;13.904;100.620;2024-01-30T06:09:27;101388.75;;;30.28;55.54
23223;BME280;11780;13.904;100.620;2024-01-30T06:11:58;101384.34;;;30.27;55.51
23223;BME280;11780;13.904;100.620;2024-01-30T06:14:29;101389.25;;;30.30;55.69
23223;BME280;11780;13.904;100.620;2024-01-30T06:17:00;101382.59;;;30.31;55.66
23223;BME280;11780;13.904;100.620;2024-01-30T06:19:30;101381.28;;;30.29;55.70
23223;BME280;11780;13.904;100.620;2024-01-30T06:22:01;101370.22;;;30.29;55.73
23223;BME280;11780;13.904;100.620;2024-01-30T06:24:31;101356.13;;;30.30;55.21
23223;BME280;11780;13.904;100.620;2024-01-30T06:27:02;101358.88;;;30.30;55.26
23223;BME280;11780;13.904;100.620;2024-01-30T06:29:32;101348.69;;;30.31;54.85
23223;BME280;11780;13.904;100.620;2024-01-30T06:32:03;101342.03;;;30.32;55.18
23223;BME280;11780;13.904;100.620;2024-01-30T06:34:34;101341.44;;;30.35;55.28
23223;BME280;11780;13.904;100.620;2024-01-30T06:37:04;101327.41;;;30.31;55.23
23223;BME280;11780;13.904;100.620;2024-01-30T06:39:35;101319.63;;;30.33;55.27
23223;BME280;11780;13.904;100.620;2024-01-30T06:42:05;101319.34;;;30.35;55.04
23223;BME280;11780;13.904;100.620;2024-01-30T06:44:36;101311.06;;;30.35;55.17
23223;BME280;11780;13.904;100.620;2024-01-30T06:47:06;101308.31;;;30.35;55.21
23223;BME280;11780;13.904;100.620;2024-01-30T06:49:36;101300.84;;;30.35;55.37
23223;BME280;11780;13.904;100.620;2024-01-30T06:52:08;101298.38;;;30.34;55.29
23223;BME280;11780;13.904;100.620;2024-01-30T06:54:39;101300.03;;;30.35;54.96
23223;BME280;11780;13.904;100.620;2024-01-30T06:57:09;101295.63;;;30.34;54.89
23223;BME280;11780;13.904;100.620;2024-01-30T06:59:41;101289.47;;;30.37;55.09
23223;BME280;11780;13.904;100.620;2024-01-30T07:02:13;101279.88;;;30.34;55.13
23223;BME280;11780;13.904;100.620;2024-01-30T07:04:44;101280.72;;;30.35;54.57
23223;BME280;11780;13.904;100.620;2024-01-30T07:07:15;101271.31;;;30.36;54.56
23223;BME280;11780;13.904;100.620;2024-01-30T07:09:45;101265.78;;;30.36;54.71
23223;BME280;11780;13.904;100.620;2024-01-30T07:12:17;101269.66;;;30.35;54.68
23223;BME280;11780;13.904;100.620;2024-01-30T07:14:48;101258.31;;;30.36;54.71
23223;BME280;11780;13.904;100.620;2024-01-30T07:17:18;101256.69;;;30.35;54.82
23223;BME280;11780;13.904;100.620;2024-01-30T07:19:49;101259.63;;;30.39;55.00
23223;BME280;11780;13.904;100.620;2024-01-30T07:22:19;101252.47;;;30.38;54.66
23223;BME280;11780;13.904;100.620;2024-01-30T07:24:50;101248.28;;;30.41;54.32
23223;BME280;11780;13.904;100.620;2024-01-30T07:27:21;101243.38;;;30.37;54.62
23223;BME280;11780;13.904;100.620;2024-01-30T07:29:52;101246.66;;;30.40;54.97
23223;BME280;11780;13.904;100.620;2024-01-30T07:32:22;101247.47;;;30.40;54.58
23223;BME280;11780;13.904;100.620;2024-01-30T07:34:53;101240.81;;;30.41;54.72
23223;BME280;11780;13.904;100.620;2024-01-30T07:37:34;101240.00;;;30.41;54.41
23223;BME280;11780;13.904;100.620;2024-01-30T07:40:05;101236.94;;;30.42;54.10
23223;BME280;11780;13.904;100.620;2024-01-30T07:42:36;101238.56;;;30.43;54.59
23223;BME280;11780;13.904;100.620;2024-01-30T07:45:09;101229.50;;;30.43;54.24
23223;BME280;11780;13.904;100.620;2024-01-30T07:47:40;101228.97;;;30.41;54.38
23223;BME280;11780;13.904;100.620;2024-01-30T07:50:10;101233.56;;;30.45;54.32
23223;BME280;11780;13.904;100.620;2024-01-30T07:52:42;101225.59;;;30.44;54.22
23223;BME280;11780;13.904;100.620;2024-01-30T07:55:12;101236.31;;;30.45;54.22
23223;BME280;11780;13.904;100.620;2024-01-30T07:57:42;101230.81;;;30.45;54.23
23223;BME280;11780;13.904;100.620;2024-01-30T08:00:13;101222.34;;;30.42;54.10
23223;BME280;11780;13.904;100.620;2024-01-30T08:02:43;101223.97;;;30.43;54.28
23223;BME280;11780;13.904;100.620;2024-01-30T08:05:14;101223.66;;;30.44;54.16
23223;BME280;11780;13.904;100.620;2024-01-30T08:07:45;101222.34;;;30.42;54.46
23223;BME280;11780;13.904;100.620;2024-01-30T08:10:16;101221.22;;;30.43;54.00
23223;BME280;11780;13.904;100.620;2024-01-30T08:12:49;101221.22;;;30.43;54.20
23223;BME280;11780;13.904;100.620;2024-01-30T08:15:19;101218.94;;;30.45;54.29
23223;BME280;11780;13.904;100.620;2024-01-30T08:17:49;101216.69;;;30.47;54.30
23223;BME280;11780;13.904;100.620;2024-01-30T08:20:25;101222.84;;;30.44;53.97
23223;BME280;11780;13.904;100.620;2024-01-30T08:22:56;101216.69;;;30.47;54.20
23223;BME280;11780;13.904;100.620;2024-01-30T08:25:26;101210.66;;;30.45;54.28
23223;BME280;11780;13.904;100.620;2024-01-30T08:27:56;101219.44;;;30.47;54.55
23223;BME280;11780;13.904;100.620;2024-01-30T08:30:27;101212.00;;;30.47;54.47
23223;BME280;11780;13.904;100.620;2024-01-30T08:32:57;101206.16;;;30.49;54.58
23223;BME280;11780;13.904;100.620;2024-01-30T08:35:28;101207.28;;;30.48;54.23
23223;BME280;11780;13.904;100.620;2024-01-30T08:38:01;101205.63;;;30.47;54.29
23223;BME280;11780;13.904;100.620;2024-01-30T08:40:33;101210.34;;;30.46;54.33
23223;BME280;11780;13.904;100.620;2024-01-30T08:43:04;101207.59;;;30.46;54.57
23223;BME280;11780;13.904;100.620;2024-01-30T08:45:34;101208.91;;;30.49;54.65
23223;BME280;11780;13.904;100.620;2024-01-30T08:48:05;101207.59;;;30.46;54.67
23223;BME280;11780;13.904;100.620;2024-01-30T08:50:36;101216.16;;;30.45;54.64
23223;BME280;11780;13.904;100.620;2024-01-30T08:53:06;101212.00;;;30.47;54.45
23223;BME280;11780;13.904;100.620;2024-01-30T08:55:37;101224.44;;;30.45;54.71
23223;BME280;11780;13.904;100.620;2024-01-30T08:58:07;101212.00;;;30.47;54.63
23223;BME280;11780;13.904;100.620;2024-01-30T09:00:37;101208.09;;;30.48;54.68
23223;BME280;11780;13.904;100.620;2024-01-30T09:03:08;101224.66;;;30.48;54.87
23223;BME280;11780;13.904;100.620;2024-01-30T09:05:38;101221.06;;;30.48;54.73
23223;BME280;11780;13.904;100.620;2024-01-30T09:08:08;101215.25;;;30.49;54.96
23223;BME280;11780;13.904;100.620;2024-01-30T09:10:40;101214.13;;;30.50;54.93
23223;BME280;11780;13.904;100.620;2024-01-30T09:13:11;101216.91;;;30.50;55.10
23223;BME280;11780;13.904;100.620;2024-01-30T09:15:42;101214.63;;;30.52;55.26
23223;BME280;11780;13.904;100.620;2024-01-30T09:18:12;101215.44;;;30.53;55.45
23223;BME280;11780;13.904;100.620;2024-01-30T09:20:43;101218.53;;;30.51;55.45
23223;BME280;11780;13.904;100.620;2024-01-30T09:23:15;101217.91;;;30.55;55.39
23223;BME280;11780;13.904;100.620;2024-01-30T09:25:47;101215.44;;;30.53;55.80
23223;BME280;11780;13.904;100.620;2024-01-30T09:28:18;101228.13;;;30.54;55.72
23223;BME280;11780;13.904;100.620;2024-01-30T09:30:51;101232.03;;;30.53;55.77
23223;BME280;11780;13.904;100.620;2024-01-30T09:33:22;101239.19;;;30.54;55.94
23223;BME280;11780;13.904;100.620;2024-01-30T09:35:52;101236.69;;;30.52;56.05
23223;BME280;11780;13.904;100.620;2024-01-30T09:38:22;101239.19;;;30.54;56.11
23223;BME280;11780;13.904;100.620;2024-01-30T09:40:54;101236.41;;;30.54;56.31
23223;BME280;11780;13.904;100.620;2024-01-30T09:43:30;101233.66;;;30.54;56.13
23223;BME280;11780;13.904;100.620;2024-01-30T09:46:03;101245.53;;;30.55;56.30
23223;BME280;11780;13.904;100.620;2024-01-30T09:48:36;101244.69;;;30.54;56.37
23223;BME280;11780;13.904;100.620;2024-01-30T09:51:08;101244.91;;;30.58;56.35
23223;BME280;11780;13.904;100.620;2024-01-30T09:53:41;101245.75;;;30.58;56.39
23223;BME280;11780;13.904;100.620;2024-01-30T09:56:13;101258.72;;;30.58;56.59
23223;BME280;11780;13.904;100.620;2024-01-30T09:58:43;101252.91;;;30.59;56.53
23223;BME280;11780;13.904;100.620;2024-01-30T10:01:15;101257.59;;;30.59;56.28
23223;BME280;11780;13.904;100.620;2024-01-30T10:03:50;101255.97;;;30.58;56.37
23223;BME280;11780;13.904;100.620;2024-01-30T10:06:24;101260.03;;;30.60;56.71
23223;BME280;11780;13.904;100.620;2024-01-30T10:08:55;101260.34;;;30.59;56.73
23223;BME280;11780;13.904;100.620;2024-01-30T10:11:25;101262.31;;;30.58;56.82
23223;BME280;11780;13.904;100.620;2024-01-30T10:13:55;101265.06;;;30.58;56.86
23223;BME280;11780;13.904;100.620;2024-01-30T10:16:26;101263.44;;;30.57;56.58
23223;BME280;11780;13.904;100.620;2024-01-30T10:18:56;101262.31;;;30.58;56.88
23223;BME280;11780;13.904;100.620;2024-01-30T10:21:27;101269.75;;;30.58;56.86
23223;BME280;11780;13.904;100.620;2024-01-30T10:23:57;101272.84;;;30.56;56.89
23223;BME280;11780;13.904;100.620;2024-01-30T10:26:28;101276.41;;;30.57;56.80
23223;BME280;11780;13.904;100.620;2024-01-30T10:28:59;101280.81;;;30.58;57.13
23223;BME280;11780;13.904;100.620;2024-01-30T10:31:30;101273.34;;;30.58;56.98
23223;BME280;11780;13.904;100.620;2024-01-30T10:34:00;101273.03;;;30.60;57.04
23223;BME280;11780;13.904;100.620;2024-01-30T10:36:46;101278.06;;;30.58;57.00
23223;BME280;11780;13.904;100.620;2024-01-30T10:39:21;101282.97;;;30.61;57.31
23223;BME280;11780;13.904;100.620;2024-01-30T10:41:56;101286.84;;;30.60;56.94
23223;BME280;11780;13.904;100.620;2024-01-30T10:44:30;101288.81;;;30.59;56.79
23223;BME280;11780;13.904;100.620;2024-01-30T10:47:07;101291.56;;;30.59;57.21
23223;BME280;11780;13.904;100.620;2024-01-30T10:49:42;101291.56;;;30.59;57.07
23223;BME280;11780;13.904;100.620;2024-01-30T10:52:13;101288.47;;;30.61;56.98
23223;BME280;11780;13.904;100.620;2024-01-30T10:54:45;101294.00;;;30.61;57.05
23223;BME280;11780;13.904;100.620;2024-01-30T10:57:17;101297.09;;;30.59;57.14
23223;BME280;11780;13.904;100.620;2024-01-30T10:59:48;101302.09;;;30.57;57.43
23223;BME280;11780;13.904;100.620;2024-01-30T11:02:20;101308.94;;;30.60;57.16
23223;BME280;11780;13.904;100.620;2024-01-30T11:04:55;101304.84;;;30.57;57.42
23223;BME280;11780;13.904;100.620;2024-01-30T11:07:29;101306.78;;;30.57;57.40
23223;BME280;11780;13.904;100.620;2024-01-30T11:10:02;101310.88;;;30.59;57.44
23223;BME280;11780;13.904;100.620;2024-01-30T11:12:40;101317.53;;;30.58;57.36
23223;BME280;11780;13.904;100.620;2024-01-30T11:15:17;101316.69;;;30.58;57.53
23223;BME280;11780;13.904;100.620;2024-01-30T11:17:50;101312.00;;;30.58;57.81
23223;BME280;11780;13.904;100.620;2024-01-30T11:20:25;101313.94;;;30.58;57.86
23223;BME280;11780;13.904;100.620;2024-01-30T11:22:57;101318.66;;;30.57;57.69
23223;BME280;11780;13.904;100.620;2024-01-30T11:25:27;101323.88;;;30.59;57.90
23223;BME280;11780;13.904;100.620;2024-01-30T11:27:58;101323.88;;;30.59;57.99
23223;BME280;11780;13.904;100.620;2024-01-30T11:30:32;101340.09;;;30.60;58.11
23223;BME280;11780;13.904;100.620;2024-01-30T11:35:43;101345.16;;;30.58;58.31
23223;BME280;11780;13.904;100.620;2024-01-30T11:38:14;101351.16;;;30.60;58.11
23223;BME280;11780;13.904;100.620;2024-01-30T11:40:45;101357.00;;;30.59;58.41
23223;BME280;11780;13.904;100.620;2024-01-30T11:43:17;101353.44;;;30.58;57.95
23223;BME280;11780;13.904;100.620;2024-01-30T11:45:48;101360.06;;;30.57;58.20
23223;BME280;11780;13.904;100.620;2024-01-30T11:48:19;101363.63;;;30.58;58.65
23223;BME280;11780;13.904;100.620;2024-01-30T11:50:50;101361.72;;;30.58;58.75
23223;BME280;11780;13.904;100.620;2024-01-30T11:53:21;101365.28;;;30.59;58.60
23223;BME280;11780;13.904;100.620;2024-01-30T11:55:52;101361.72;;;30.58;58.70
23223;BME280;11780;13.904;100.620;2024-01-30T11:58:25;101367.84;;;30.55;59.04
23223;BME280;11780;13.904;100.620;2024-01-30T12:00:56;101368.34;;;30.57;58.94
23223;BME280;11780;13.904;100.620;2024-01-30T12:03:27;101369.16;;;30.58;58.76
23223;BME280;11780;13.904;100.620;2024-01-30T12:05:58;101369.47;;;30.56;58.83
23223;BME280;11780;13.904;100.620;2024-01-30T12:08:29;101372.44;;;30.60;59.07
23223;BME280;11780;13.904;100.620;2024-01-30T12:10:59;101384.59;;;30.59;59.08
23223;BME280;11780;13.904;100.620;2024-01-30T12:13:32;101371.91;;;30.58;59.19
23223;BME280;11780;13.904;100.620;2024-01-30T12:16:02;101382.16;;;30.57;58.88
23223;BME280;11780;13.904;100.620;2024-01-30T12:18:33;101388.81;;;30.56;58.90
23223;BME280;11780;13.904;100.620;2024-01-30T12:21:04;101394.84;;;30.58;58.98
23223;BME280;11780;13.904;100.620;2024-01-30T12:23:35;101400.03;;;30.60;59.01
23223;BME280;11780;13.904;100.620;2024-01-30T12:26:05;101402.91;;;30.55;58.86
23223;BME280;11780;13.904;100.620;2024-01-30T12:28:36;101399.84;;;30.56;59.19
23223;BME280;11780;13.904;100.620;2024-01-30T12:31:09;101410.88;;;30.56;59.01
23223;BME280;11780;13.904;100.620;2024-01-30T12:33:39;101408.94;;;30.57;59.24
23223;BME280;11780;13.904;100.620;2024-01-30T12:36:11;101411.69;;;30.57;59.56
23223;BME280;11780;13.904;100.620;2024-01-30T12:38:42;101413.94;;;30.55;59.33
23223;BME280;11780;13.904;100.620;2024-01-30T12:41:12;101419.75;;;30.53;59.76
23223;BME280;11780;13.904;100.620;2024-01-30T12:43:43;101426.34;;;30.57;59.52
23223;BME280;11780;13.904;100.620;2024-01-30T12:46:13;101430.78;;;30.53;59.70
23223;BME280;11780;13.904;100.620;2024-01-30T12:48:47;101436.88;;;30.55;59.21
23223;BME280;11780;13.904;100.620;2024-01-30T12:51:17;101445.16;;;30.55;59.38
23223;BME280;11780;13.904;100.620;2024-01-30T12:53:47;101454.22;;;30.56;59.13